Time;durP1;ratioP1;P1;durP2;ratioP2;P2;SDS_P1;SDS_P2;PMS_P1;PMS_P2;Temp;Humidity;BMP_temperature;BMP_pressure;BME280_temperature;BME280_humidity;BME280_pressure;Samples;Min_cycle;Max_cycle;Signal;HPM_P1;HPM_P2
2022/06/08 02:46:48;;;;;;;;;;;;;;;13.94;80.73;99874.44;6289663;22;2902;-93
2022/06/08 02:49:13;;;;;;;;;;;;;;;13.90;79.65;99875.38;6275383;22;1259;-93
2022/06/08 02:51:44;;;;;;;;;;;;;;;13.71;82.35;99878.34;6268561;22;1247;-93
2022/06/08 02:54:14;;;;;;;;;;;;;;;13.79;82.83;99874.81;6278027;22;1288;-94
2022/06/08 02:56:45;;;;;;;;;;;;;;;14.06;82.14;99875.75;6267943;22;1216;-94
2022/06/08 02:59:14;;;;;;;;;;;;;;;14.26;82.50;99872.41;6277416;22;1232;-93
2022/06/08 03:01:47;;;;;;;;;;;;;;;14.20;82.74;99868.19;6278910;22;1904;-92
2022/06/08 03:04:21;;;;;;;;;;;;;;;14.28;82.23;99870.97;6300629;22;1173;-92
2022/06/08 03:06:52;;;;;;;;;;;;;;;14.23;81.26;99867.53;6270253;22;1284;-94
2022/06/08 03:09:18;;;;;;;;;;;;;;;14.43;81.83;99866.97;6278371;22;1302;-93
2022/06/08 03:11:46;;;;;;;;;;;;;;;14.21;81.11;99867.03;6269192;22;1440;-93
2022/06/08 03:14:14;;;;;;;;;;;;;;;14.07;81.65;99860.84;6276787;22;1207;-93
2022/06/08 03:16:41;;;;;;;;;;;;;;;14.09;82.79;99869.59;6278560;22;1289;-94
2022/06/08 03:19:08;;;;;;;;;;;;;;;14.31;83.36;99866.75;6273986;22;1226;-93
2022/06/08 03:21:33;;;;;;;;;;;;;;;14.40;82.77;99870.34;6279737;22;1865;-94
2022/06/08 03:23:59;;;;;;;;;;;;;;;14.36;82.76;99866.63;6271927;22;1155;-93
2022/06/08 03:26:25;;;;;;;;;;;;;;;14.33;82.64;99864.50;6278578;22;1188;-93
2022/06/08 03:28:51;;;;;;;;;;;;;;;14.43;82.85;99861.47;6271492;22;1376;-93
2022/06/08 03:31:17;;;;;;;;;;;;;;;14.55;83.02;99853.38;6277568;22;1162;-93
2022/06/08 03:33:42;;;;;;;;;;;;;;;14.64;82.38;99854.19;6268220;22;1227;-94
2022/06/08 03:36:08;;;;;;;;;;;;;;;14.61;81.94;99857.59;6279911;22;1250;-94
2022/06/08 03:38:34;;;;;;;;;;;;;;;14.54;83.12;99860.03;6266117;22;1072;-92
2022/06/08 03:40:59;;;;;;;;;;;;;;;14.61;83.30;99862.31;6277764;22;1933;-93
2022/06/08 03:43:25;;;;;;;;;;;;;;;14.30;83.64;99868.69;6276841;22;1227;-92
2022/06/08 03:45:53;;;;;;;;;;;;;;;14.21;83.85;99867.84;6278864;22;836;-93
2022/06/08 03:48:19;;;;;;;;;;;;;;;14.25;84.36;99862.53;6302267;22;1338;-93
2022/06/08 03:50:47;;;;;;;;;;;;;;;14.20;83.88;99868.19;6271368;22;1225;-93
2022/06/08 03:53:15;;;;;;;;;;;;;;;14.19;84.05;99872.06;6280248;22;1268;-93
2022/06/08 03:55:40;;;;;;;;;;;;;;;14.34;84.15;99866.94;6280658;22;1039;-93
2022/06/08 03:58:05;;;;;;;;;;;;;;;14.55;84.31;99863.56;6275342;22;1262;-92
2022/06/08 04:00:31;;;;;;;;;;;;;;;14.80;84.78;99870.25;6268461;22;1928;-93
2022/06/08 04:02:57;;;;;;;;;;;;;;;15.14;83.29;99870.25;6278834;22;1260;-93
2022/06/08 04:05:22;;;;;;;;;;;;;;;14.99;82.70;99873.47;6279626;22;1226;-93
2022/06/08 04:07:47;;;;;;;;;;;;;;;14.96;82.46;99858.44;6271257;22;1181;-92
2022/06/08 04:10:13;;;;;;;;;;;;;;;15.06;82.00;99865.53;6279355;22;992;-93
2022/06/08 04:12:38;;;;;;;;;;;;;;;15.12;82.01;99858.72;6270044;22;1159;-93
2022/06/08 04:15:04;;;;;;;;;;;;;;;15.24;82.64;99864.38;6280944;22;1248;-93
2022/06/08 04:17:29;;;;;;;;;;;;;;;15.24;83.21;99856.09;6268151;22;1166;-94
2022/06/08 04:19:54;;;;;;;;;;;;;;;15.35;83.30;99860.16;6281179;22;1914;-94
2022/06/08 04:22:21;;;;;;;;;;;;;;;15.49;83.85;99855.22;6283106;22;960;-92
2022/06/08 04:24:47;;;;;;;;;;;;;;;15.65;83.52;99846.47;6273946;22;1283;-94
2022/06/08 04:27:12;;;;;;;;;;;;;;;15.73;83.14;99846.44;6283038;22;1265;-92
2022/06/08 04:29:38;;;;;;;;;;;;;;;15.63;83.96;99843.22;6273211;22;1258;-93
2022/06/08 04:32:04;;;;;;;;;;;;;;;15.57;84.06;99842.56;6281535;22;1278;-93
2022/06/08 04:34:29;;;;;;;;;;;;;;;15.52;84.29;99842.75;6296635;22;1337;-94
2022/06/08 04:36:55;;;;;;;;;;;;;;;15.49;84.64;99846.97;6282528;22;1206;-93
2022/06/08 04:39:20;;;;;;;;;;;;;;;15.47;85.17;99842.94;6283413;22;1441;-93
2022/06/08 04:41:45;;;;;;;;;;;;;;;15.46;85.42;99841.31;6275510;22;1932;-93
2022/06/08 04:44:10;;;;;;;;;;;;;;;15.54;85.51;99837.75;6280415;22;1186;-91
2022/06/08 04:46:36;;;;;;;;;;;;;;;15.65;84.99;99840.97;6270216;22;1303;-93
2022/06/08 04:49:02;;;;;;;;;;;;;;;15.73;84.64;99838.16;6280930;22;1194;-93
2022/06/08 04:51:27;;;;;;;;;;;;;;;15.82;84.22;99841.66;6268955;22;1274;-93
2022/06/08 04:53:52;;;;;;;;;;;;;;;15.91;83.82;99849.13;6280629;22;885;-93
2022/06/08 04:56:17;;;;;;;;;;;;;;;15.95;83.83;99848.13;6282597;22;1249;-94
2022/06/08 04:58:42;;;;;;;;;;;;;;;15.95;83.86;99855.59;6273783;22;1208;-93
2022/06/08 05:01:07;;;;;;;;;;;;;;;15.91;83.91;99849.91;6308842;22;1896;-92
2022/06/08 05:03:33;;;;;;;;;;;;;;;15.93;84.45;99849.59;6283739;22;1101;-90
2022/06/08 05:05:59;;;;;;;;;;;;;;;15.98;83.91;99861.28;6276620;22;1190;-91
2022/06/08 05:08:25;;;;;;;;;;;;;;;16.05;83.48;99861.56;6281902;22;1171;-91
2022/06/08 05:10:51;;;;;;;;;;;;;;;16.03;83.08;99863.84;6274536;22;1289;-91
2022/06/08 05:13:17;;;;;;;;;;;;;;;16.03;83.31;99855.56;6280693;22;1306;-91
2022/06/08 05:15:43;;;;;;;;;;;;;;;16.07;83.60;99859.28;6283570;22;1070;-91
2022/06/08 05:18:09;;;;;;;;;;;;;;;16.21;83.39;99859.84;6284380;22;1174;-92
2022/06/08 05:20:35;;;;;;;;;;;;;;;16.32;82.91;99863.03;6283781;22;1900;-91
2022/06/08 05:23:01;;;;;;;;;;;;;;;16.30;82.90;99867.28;6301994;22;1294;-91
2022/06/08 05:25:29;;;;;;;;;;;;;;;16.30;82.74;99872.78;6281789;22;1172;-91
2022/06/08 05:27:54;;;;;;;;;;;;;;;16.29;83.02;99866.47;6281331;22;1301;-91
2022/06/08 05:30:19;;;;;;;;;;;;;;;16.29;82.74;99863.69;6281308;22;1393;-91
2022/06/08 05:32:44;;;;;;;;;;;;;;;16.31;82.85;99863.38;6272027;22;1238;-91
2022/06/08 05:35:10;;;;;;;;;;;;;;;16.36;82.37;99861.22;6281920;22;1173;-91
2022/06/08 05:37:35;;;;;;;;;;;;;;;16.39;82.70;99866.06;6271002;22;1203;-90
2022/06/08 05:40:01;;;;;;;;;;;;;;;16.38;82.08;99864.44;6282714;22;1857;-91
2022/06/08 05:42:27;;;;;;;;;;;;;;;16.28;82.48;99860.13;6258231;22;1322;-92
2022/06/08 05:44:52;;;;;;;;;;;;;;;16.19;83.06;99861.31;6276681;22;1204;-91
2022/06/08 05:47:17;;;;;;;;;;;;;;;16.05;82.82;99856.03;6284458;22;1390;-91
2022/06/08 05:49:43;;;;;;;;;;;;;;;16.06;83.25;99862.38;6273296;22;1218;-90
2022/06/08 05:52:08;;;;;;;;;;;;;;;16.09;83.46;99856.97;6280991;22;1323;-92
2022/06/08 05:54:33;;;;;;;;;;;;;;;16.22;83.16;99860.66;6282077;22;782;-91
2022/06/08 05:56:59;;;;;;;;;;;;;;;16.37;82.82;99862.84;6282758;22;1293;-91
2022/06/08 05:59:24;;;;;;;;;;;;;;;16.41;82.08;99865.75;6282611;22;1020;-90
2022/06/08 06:01:49;;;;;;;;;;;;;;;16.58;81.91;99871.16;6273986;22;1924;-92
2022/06/08 06:04:15;;;;;;;;;;;;;;;16.66;81.82;99872.28;6306301;22;1262;-91
2022/06/08 06:06:45;;;;;;;;;;;;;;;16.75;81.13;99868.31;6283145;22;1269;-91
2022/06/08 06:09:11;;;;;;;;;;;;;;;16.77;79.94;99866.00;6277675;22;1384;-90
2022/06/08 06:11:37;;;;;;;;;;;;;;;16.93;80.08;99866.19;6270724;22;1349;-90
2022/06/08 06:14:03;;;;;;;;;;;;;;;16.99;78.78;99864.84;6282884;22;892;-91
2022/06/08 06:16:28;;;;;;;;;;;;;;;17.05;79.11;99859.91;6269056;22;1216;-91
2022/06/08 06:18:53;;;;;;;;;;;;;;;17.13;78.16;99867.31;6281321;22;948;-91
2022/06/08 06:21:20;;;;;;;;;;;;;;;17.07;77.89;99854.84;6277476;22;1892;-91
2022/06/08 06:23:45;;;;;;;;;;;;;;;17.21;78.19;99856.16;6269487;22;1338;-91
2022/06/08 06:26:10;;;;;;;;;;;;;;;17.48;78.73;99859.47;6279104;22;1206;-91
2022/06/08 06:28:35;;;;;;;;;;;;;;;17.67;77.36;99857.84;6268698;22;1429;-90
2022/06/08 06:31:01;;;;;;;;;;;;;;;17.73;76.84;99853.69;6279576;22;1000;-91
2022/06/08 06:33:26;;;;;;;;;;;;;;;17.66;73.49;99861.75;6279022;22;1246;-91
2022/06/08 06:35:51;;;;;;;;;;;;;;;17.58;74.50;99861.81;6278777;22;1269;-91
2022/06/08 06:38:17;;;;;;;;;;;;;;;17.61;73.98;99855.59;6304656;22;1325;-91
2022/06/08 06:40:42;;;;;;;;;;;;;;;17.67;74.01;99846.78;6269627;22;1861;-91
2022/06/08 06:43:09;;;;;;;;;;;;;;;17.74;75.15;99860.84;6282688;22;1179;-91
2022/06/08 06:45:35;;;;;;;;;;;;;;;17.67;75.49;99852.31;6271611;22;1212;-92
2022/06/08 06:48:00;;;;;;;;;;;;;;;17.55;74.84;99849.47;6282597;22;1273;-92
2022/06/08 06:50:28;;;;;;;;;;;;;;;17.68;73.71;99847.56;6282727;22;1066;-91
2022/06/08 06:52:54;;;;;;;;;;;;;;;17.75;73.77;99850.59;6281960;22;1240;-91
2022/06/08 06:55:23;;;;;;;;;;;;;;;17.81;71.79;99848.38;6283175;22;1336;-91
2022/06/08 06:57:49;;;;;;;;;;;;;;;17.84;72.33;99848.53;6276324;22;1289;-91
2022/06/08 07:00:14;;;;;;;;;;;;;;;17.84;72.56;99848.53;6282851;22;1923;-91
2022/06/08 07:02:40;;;;;;;;;;;;;;;17.81;72.61;99848.38;6271644;22;1260;-91
2022/06/08 07:05:05;;;;;;;;;;;;;;;17.73;72.26;99848.16;6283606;22;1283;-92
2022/06/08 07:07:30;;;;;;;;;;;;;;;17.70;72.09;99840.53;6272659;22;1218;-91
2022/06/08 07:09:55;;;;;;;;;;;;;;;17.58;71.98;99846.03;6283940;22;802;-92
2022/06/08 07:12:21;;;;;;;;;;;;;;;17.64;72.78;99844.69;6283753;22;814;-91
2022/06/08 07:14:46;;;;;;;;;;;;;;;17.59;71.25;99844.88;6271863;22;984;-91
2022/06/08 07:17:11;;;;;;;;;;;;;;;17.81;72.49;99835.34;6280133;22;1277;-90
2022/06/08 07:19:37;;;;;;;;;;;;;;;17.88;71.18;99832.00;6271310;22;1046;-91
2022/06/08 07:22:02;;;;;;;;;;;;;;;18.10;71.05;99834.34;6281382;22;1892;-92
2022/06/08 07:24:30;;;;;;;;;;;;;;;18.31;71.19;99826.69;6269983;22;1249;-91
2022/06/08 07:26:55;;;;;;;;;;;;;;;18.28;71.15;99829.34;6282230;22;1229;-91
2022/06/08 07:29:20;;;;;;;;;;;;;;;18.14;68.92;99819.44;6284020;22;991;-90
2022/06/08 07:31:46;;;;;;;;;;;;;;;18.14;69.92;99816.66;6275282;22;1187;-91
2022/06/08 07:34:12;;;;;;;;;;;;;;;18.30;69.47;99811.22;6286872;22;975;-91
2022/06/08 07:36:38;;;;;;;;;;;;;;;18.43;68.85;99798.16;6274827;22;1280;-91
2022/06/08 07:39:03;;;;;;;;;;;;;;;18.56;67.54;99796.94;6283939;22;1257;-91
2022/06/08 07:41:28;;;;;;;;;;;;;;;18.73;67.23;99795.91;6273339;22;1932;-92
2022/06/08 07:43:53;;;;;;;;;;;;;;;18.75;64.92;99780.53;6285877;22;1142;-92
2022/06/08 07:46:19;;;;;;;;;;;;;;;18.85;66.62;99784.75;6289218;22;1280;-91
2022/06/08 07:51:28;;;;;;;;;;;;;;;18.92;64.69;99787.75;6287894;22;628;-91
2022/06/08 07:53:53;;;;;;;;;;;;;;;18.85;64.36;99785.56;6278473;22;1310;-91
2022/06/08 07:56:19;;;;;;;;;;;;;;;18.92;65.27;99778.59;6281666;22;1281;-91
2022/06/08 07:58:44;;;;;;;;;;;;;;;18.89;63.40;99778.16;6279171;22;1187;-91
2022/06/08 08:01:09;;;;;;;;;;;;;;;18.91;63.06;99783.34;6286552;22;1939;-92
